sensor_id;sensor_type;location;lat;lon;timestamp;P1;durP1;ratioP1;P2;durP2;ratioP2
36663;SDS011;53333;51.976;20.144;2022-08-01T00:00:10;14.57;;;7.90;;
36663;SDS011;53333;51.976;20.144;2022-08-01T00:02:44;9.70;;;6.88;;
36663;SDS011;53333;51.976;20.144;2022-08-01T00:05:18;8.52;;;6.22;;
36663;SDS011;53333;51.976;20.144;2022-08-01T00:07:52;7.55;;;6.70;;
36663;SDS011;53333;51.976;20.144;2022-08-01T00:10:25;7.60;;;5.90;;
36663;SDS011;53333;51.976;20.144;2022-08-01T00:13:00;10.40;;;6.20;;
36663;SDS011;53333;51.976;20.144;2022-08-01T00:15:34;11.38;;;6.55;;
36663;SDS011;53333;51.976;20.144;2022-08-01T00:18:08;9.00;;;6.10;;
36663;SDS011;53333;51.976;20.144;2022-08-01T00:23:15;7.73;;;5.67;;
36663;SDS011;53333;51.976;20.144;2022-08-01T00:28:23;7.00;;;6.03;;
36663;SDS011;53333;51.976;20.144;2022-08-01T00:30:57;8.93;;;5.38;;
36663;SDS011;53333;51.976;20.144;2022-08-01T00:33:31;12.15;;;5.45;;
36663;SDS011;53333;51.976;20.144;2022-08-01T00:36:04;6.32;;;5.13;;
36663;SDS011;53333;51.976;20.144;2022-08-01T00:41:11;5.78;;;5.18;;
36663;SDS011;53333;51.976;20.144;2022-08-01T00:43:47;12.98;;;5.55;;
36663;SDS011;53333;51.976;20.144;2022-08-01T00:46:20;7.68;;;5.45;;
36663;SDS011;53333;51.976;20.144;2022-08-01T00:48:54;8.23;;;5.78;;
36663;SDS011;53333;51.976;20.144;2022-08-01T00:51:28;11.00;;;5.82;;
36663;SDS011;53333;51.976;20.144;2022-08-01T00:54:02;9.63;;;5.82;;
36663;SDS011;53333;51.976;20.144;2022-08-01T00:56:36;10.60;;;5.55;;
36663;SDS011;53333;51.976;20.144;2022-08-01T00:59:12;8.63;;;5.93;;
36663;SDS011;53333;51.976;20.144;2022-08-01T01:01:51;12.50;;;5.80;;
36663;SDS011;53333;51.976;20.144;2022-08-01T01:04:25;11.30;;;5.40;;
36663;SDS011;53333;51.976;20.144;2022-08-01T01:07:02;9.55;;;6.07;;
36663;SDS011;53333;51.976;20.144;2022-08-01T01:09:43;10.45;;;5.82;;
36663;SDS011;53333;51.976;20.144;2022-08-01T01:12:27;11.57;;;6.80;;
36663;SDS011;53333;51.976;20.144;2022-08-01T01:15:11;10.45;;;6.47;;
36663;SDS011;53333;51.976;20.144;2022-08-01T01:17:50;9.10;;;6.03;;
36663;SDS011;53333;51.976;20.144;2022-08-01T01:20:30;12.13;;;6.22;;
36663;SDS011;53333;51.976;20.144;2022-08-01T01:23:19;11.75;;;6.25;;
36663;SDS011;53333;51.976;20.144;2022-08-01T01:26:08;11.07;;;5.97;;
36663;SDS011;53333;51.976;20.144;2022-08-01T01:29:02;13.23;;;5.43;;
36663;SDS011;53333;51.976;20.144;2022-08-01T01:31:40;9.98;;;6.28;;
36663;SDS011;53333;51.976;20.144;2022-08-01T01:34:18;9.07;;;6.97;;
36663;SDS011;53333;51.976;20.144;2022-08-01T01:36:59;12.20;;;7.22;;
36663;SDS011;53333;51.976;20.144;2022-08-01T01:39:35;11.95;;;6.80;;
36663;SDS011;53333;51.976;20.144;2022-08-01T01:42:15;8.23;;;6.68;;
36663;SDS011;53333;51.976;20.144;2022-08-01T01:44:52;11.88;;;6.75;;
36663;SDS011;53333;51.976;20.144;2022-08-01T01:47:27;8.77;;;5.97;;
36663;SDS011;53333;51.976;20.144;2022-08-01T01:50:02;7.75;;;6.35;;
36663;SDS011;53333;51.976;20.144;2022-08-01T01:52:38;9.02;;;6.20;;
36663;SDS011;53333;51.976;20.144;2022-08-01T01:55:13;9.32;;;6.30;;
36663;SDS011;53333;51.976;20.144;2022-08-01T01:57:50;11.55;;;6.63;;
36663;SDS011;53333;51.976;20.144;2022-08-01T02:00:27;6.78;;;5.45;;
36663;SDS011;53333;51.976;20.144;2022-08-01T02:03:25;9.07;;;6.07;;
36663;SDS011;53333;51.976;20.144;2022-08-01T02:06:00;10.48;;;6.28;;
36663;SDS011;53333;51.976;20.144;2022-08-01T02:08:35;8.70;;;6.00;;
36663;SDS011;53333;51.976;20.144;2022-08-01T02:11:10;16.05;;;6.40;;
36663;SDS011;53333;51.976;20.144;2022-08-01T02:13:53;6.60;;;5.80;;
36663;SDS011;53333;51.976;20.144;2022-08-01T02:16:34;12.00;;;6.25;;
36663;SDS011;53333;51.976;20.144;2022-08-01T02:19:10;8.70;;;5.65;;
36663;SDS011;53333;51.976;20.144;2022-08-01T02:21:45;9.65;;;5.63;;
36663;SDS011;53333;51.976;20.144;2022-08-01T02:24:24;6.47;;;5.72;;
36663;SDS011;53333;51.976;20.144;2022-08-01T02:27:03;7.45;;;6.05;;
36663;SDS011;53333;51.976;20.144;2022-08-01T02:29:41;14.15;;;6.20;;
36663;SDS011;53333;51.976;20.144;2022-08-01T02:32:20;14.60;;;6.57;;
36663;SDS011;53333;51.976;20.144;2022-08-01T02:34:59;12.35;;;5.80;;
36663;SDS011;53333;51.976;20.144;2022-08-01T02:37:36;6.90;;;5.10;;
36663;SDS011;53333;51.976;20.144;2022-08-01T02:40:17;9.10;;;6.82;;
36663;SDS011;53333;51.976;20.144;2022-08-01T02:42:52;8.90;;;5.82;;
36663;SDS011;53333;51.976;20.144;2022-08-01T02:45:27;10.60;;;5.97;;
36663;SDS011;53333;51.976;20.144;2022-08-01T02:48:05;7.32;;;5.50;;
36663;SDS011;53333;51.976;20.144;2022-08-01T02:50:43;14.32;;;6.25;;
36663;SDS011;53333;51.976;20.144;2022-08-01T02:53:20;10.93;;;6.10;;
36663;SDS011;53333;51.976;20.144;2022-08-01T02:56:15;9.90;;;5.70;;
36663;SDS011;53333;51.976;20.144;2022-08-01T02:58:51;8.70;;;5.90;;
36663;SDS011;53333;51.976;20.144;2022-08-01T03:01:26;11.52;;;6.07;;
36663;SDS011;53333;51.976;20.144;2022-08-01T03:04:04;12.07;;;7.38;;
36663;SDS011;53333;51.976;20.144;2022-08-01T03:06:39;8.45;;;7.22;;
36663;SDS011;53333;51.976;20.144;2022-08-01T03:09:16;7.13;;;6.43;;
36663;SDS011;53333;51.976;20.144;2022-08-01T03:11:51;12.45;;;6.65;;
36663;SDS011;53333;51.976;20.144;2022-08-01T03:14:28;11.80;;;7.75;;
36663;SDS011;53333;51.976;20.144;2022-08-01T03:17:04;18.38;;;7.28;;
36663;SDS011;53333;51.976;20.144;2022-08-01T03:19:40;8.77;;;7.28;;
36663;SDS011;53333;51.976;20.144;2022-08-01T03:22:20;11.32;;;8.25;;
36663;SDS011;53333;51.976;20.144;2022-08-01T03:24:56;9.95;;;7.65;;
36663;SDS011;53333;51.976;20.144;2022-08-01T03:27:32;12.70;;;8.50;;
36663;SDS011;53333;51.976;20.144;2022-08-01T03:30:08;11.05;;;7.82;;
36663;SDS011;53333;51.976;20.144;2022-08-01T03:32:43;14.23;;;7.60;;
36663;SDS011;53333;51.976;20.144;2022-08-01T03:35:19;15.43;;;8.55;;
36663;SDS011;53333;51.976;20.144;2022-08-01T03:37:55;14.38;;;9.18;;
36663;SDS011;53333;51.976;20.144;2022-08-01T03:40:51;17.73;;;9.10;;
36663;SDS011;53333;51.976;20.144;2022-08-01T03:43:26;8.68;;;7.78;;
36663;SDS011;53333;51.976;20.144;2022-08-01T03:46:07;12.00;;;7.97;;
36663;SDS011;53333;51.976;20.144;2022-08-01T03:48:47;17.23;;;9.18;;
36663;SDS011;53333;51.976;20.144;2022-08-01T03:51:26;13.13;;;8.25;;
36663;SDS011;53333;51.976;20.144;2022-08-01T03:54:02;12.23;;;8.40;;
36663;SDS011;53333;51.976;20.144;2022-08-01T03:56:38;14.38;;;7.63;;
36663;SDS011;53333;51.976;20.144;2022-08-01T03:59:13;13.65;;;8.40;;
36663;SDS011;53333;51.976;20.144;2022-08-01T04:01:49;11.48;;;8.75;;
36663;SDS011;53333;51.976;20.144;2022-08-01T04:04:23;11.63;;;8.15;;
36663;SDS011;53333;51.976;20.144;2022-08-01T04:06:59;11.85;;;8.25;;
36663;SDS011;53333;51.976;20.144;2022-08-01T04:09:35;13.07;;;8.57;;
36663;SDS011;53333;51.976;20.144;2022-08-01T04:12:11;9.63;;;8.13;;
36663;SDS011;53333;51.976;20.144;2022-08-01T04:14:45;10.18;;;8.57;;
36663;SDS011;53333;51.976;20.144;2022-08-01T04:17:20;13.32;;;9.10;;
36663;SDS011;53333;51.976;20.144;2022-08-01T04:22:29;11.07;;;9.30;;
36663;SDS011;53333;51.976;20.144;2022-08-01T04:25:09;14.00;;;9.25;;
36663;SDS011;53333;51.976;20.144;2022-08-01T04:27:47;14.02;;;9.13;;
36663;SDS011;53333;51.976;20.144;2022-08-01T04:30:24;14.40;;;10.50;;
36663;SDS011;53333;51.976;20.144;2022-08-01T04:33:02;14.15;;;11.02;;
36663;SDS011;53333;51.976;20.144;2022-08-01T04:35:39;11.82;;;9.98;;
36663;SDS011;53333;51.976;20.144;2022-08-01T04:38:36;14.50;;;11.52;;
36663;SDS011;53333;51.976;20.144;2022-08-01T04:41:12;18.05;;;11.48;;
36663;SDS011;53333;51.976;20.144;2022-08-01T04:43:46;11.32;;;9.98;;
36663;SDS011;53333;51.976;20.144;2022-08-01T04:46:20;14.02;;;11.35;;
36663;SDS011;53333;51.976;20.144;2022-08-01T04:48:55;12.07;;;10.85;;
36663;SDS011;53333;51.976;20.144;2022-08-01T04:51:29;13.00;;;10.85;;
36663;SDS011;53333;51.976;20.144;2022-08-01T04:56:39;15.32;;;10.18;;
36663;SDS011;53333;51.976;20.144;2022-08-01T04:59:13;11.57;;;9.80;;
36663;SDS011;53333;51.976;20.144;2022-08-01T05:02:04;9.45;;;8.40;;
36663;SDS011;53333;51.976;20.144;2022-08-01T05:04:40;12.32;;;9.10;;
36663;SDS011;53333;51.976;20.144;2022-08-01T05:07:14;12.23;;;8.52;;
36663;SDS011;53333;51.976;20.144;2022-08-01T05:09:49;11.95;;;8.70;;
36663;SDS011;53333;51.976;20.144;2022-08-01T05:12:23;12.55;;;9.05;;
36663;SDS011;53333;51.976;20.144;2022-08-01T05:14:57;15.10;;;7.95;;
36663;SDS011;53333;51.976;20.144;2022-08-01T05:17:31;9.02;;;8.13;;
36663;SDS011;53333;51.976;20.144;2022-08-01T05:20:05;9.90;;;8.05;;
36663;SDS011;53333;51.976;20.144;2022-08-01T05:22:39;9.55;;;7.78;;
36663;SDS011;53333;51.976;20.144;2022-08-01T05:25:15;8.40;;;7.32;;
36663;SDS011;53333;51.976;20.144;2022-08-01T05:28:09;10.88;;;6.95;;
36663;SDS011;53333;51.976;20.144;2022-08-01T05:30:49;11.18;;;7.00;;
36663;SDS011;53333;51.976;20.144;2022-08-01T05:33:26;8.75;;;7.28;;
36663;SDS011;53333;51.976;20.144;2022-08-01T05:38:33;8.47;;;6.70;;
36663;SDS011;53333;51.976;20.144;2022-08-01T05:41:08;7.38;;;6.68;;
36663;SDS011;53333;51.976;20.144;2022-08-01T05:43:43;9.35;;;6.22;;
36663;SDS011;53333;51.976;20.144;2022-08-01T05:46:17;12.20;;;6.40;;
36663;SDS011;53333;51.976;20.144;2022-08-01T05:48:50;8.88;;;6.18;;
36663;SDS011;53333;51.976;20.144;2022-08-01T05:51:24;8.88;;;6.05;;
36663;SDS011;53333;51.976;20.144;2022-08-01T05:53:58;7.55;;;5.78;;
36663;SDS011;53333;51.976;20.144;2022-08-01T05:56:34;8.98;;;5.38;;
36663;SDS011;53333;51.976;20.144;2022-08-01T05:59:07;9.38;;;5.40;;
36663;SDS011;53333;51.976;20.144;2022-08-01T06:01:41;8.32;;;5.72;;
36663;SDS011;53333;51.976;20.144;2022-08-01T06:04:15;6.38;;;5.40;;
36663;SDS011;53333;51.976;20.144;2022-08-01T06:06:49;5.95;;;4.63;;
36663;SDS011;53333;51.976;20.144;2022-08-01T06:09:22;8.77;;;4.95;;
36663;SDS011;53333;51.976;20.144;2022-08-01T06:11:58;6.13;;;4.70;;
36663;SDS011;53333;51.976;20.144;2022-08-01T06:14:31;7.25;;;5.45;;
36663;SDS011;53333;51.976;20.144;2022-08-01T06:17:05;8.75;;;5.13;;
36663;SDS011;53333;51.976;20.144;2022-08-01T06:19:39;5.65;;;4.68;;
36663;SDS011;53333;51.976;20.144;2022-08-01T06:22:12;5.97;;;4.93;;
36663;SDS011;53333;51.976;20.144;2022-08-01T06:24:46;6.22;;;4.28;;
36663;SDS011;53333;51.976;20.144;2022-08-01T06:27:21;6.80;;;4.18;;
36663;SDS011;53333;51.976;20.144;2022-08-01T06:29:56;9.80;;;4.47;;
36663;SDS011;53333;51.976;20.144;2022-08-01T06:32:30;7.20;;;3.90;;
36663;SDS011;53333;51.976;20.144;2022-08-01T06:35:04;7.93;;;3.92;;
36663;SDS011;53333;51.976;20.144;2022-08-01T06:37:38;8.20;;;4.47;;
36663;SDS011;53333;51.976;20.144;2022-08-01T06:40:12;4.10;;;3.47;;
36663;SDS011;53333;51.976;20.144;2022-08-01T06:42:49;4.35;;;3.33;;
36663;SDS011;53333;51.976;20.144;2022-08-01T06:45:23;4.15;;;3.40;;
36663;SDS011;53333;51.976;20.144;2022-08-01T06:47:58;5.93;;;3.45;;
36663;SDS011;53333;51.976;20.144;2022-08-01T06:50:32;4.40;;;3.40;;
36663;SDS011;53333;51.976;20.144;2022-08-01T06:53:07;7.30;;;3.22;;
36663;SDS011;53333;51.976;20.144;2022-08-01T06:55:42;6.43;;;3.38;;
36663;SDS011;53333;51.976;20.144;2022-08-01T06:58:18;5.60;;;3.80;;
36663;SDS011;53333;51.976;20.144;2022-08-01T07:01:01;6.32;;;4.00;;
36663;SDS011;53333;51.976;20.144;2022-08-01T07:03:37;8.35;;;3.17;;
36663;SDS011;53333;51.976;20.144;2022-08-01T07:06:25;5.03;;;2.50;;
36663;SDS011;53333;51.976;20.144;2022-08-01T07:08:59;4.82;;;2.80;;
36663;SDS011;53333;51.976;20.144;2022-08-01T07:11:42;4.18;;;2.60;;
36663;SDS011;53333;51.976;20.144;2022-08-01T07:14:17;4.22;;;2.38;;
36663;SDS011;53333;51.976;20.144;2022-08-01T07:16:51;3.65;;;2.58;;
36663;SDS011;53333;51.976;20.144;2022-08-01T07:19:25;8.35;;;4.22;;
36663;SDS011;53333;51.976;20.144;2022-08-01T07:21:59;4.28;;;2.22;;
36663;SDS011;53333;51.976;20.144;2022-08-01T07:24:35;3.25;;;2.92;;
36663;SDS011;53333;51.976;20.144;2022-08-01T07:27:13;6.78;;;2.53;;
36663;SDS011;53333;51.976;20.144;2022-08-01T07:29:58;3.40;;;3.10;;
36663;SDS011;53333;51.976;20.144;2022-08-01T07:32:31;6.72;;;4.90;;
36663;SDS011;53333;51.976;20.144;2022-08-01T07:35:06;7.75;;;3.30;;
36663;SDS011;53333;51.976;20.144;2022-08-01T07:37:40;6.55;;;3.08;;
36663;SDS011;53333;51.976;20.144;2022-08-01T07:40:19;4.05;;;2.28;;
36663;SDS011;53333;51.976;20.144;2022-08-01T07:42:53;4.50;;;2.65;;
36663;SDS011;53333;51.976;20.144;2022-08-01T07:45:28;6.00;;;3.17;;
36663;SDS011;53333;51.976;20.144;2022-08-01T07:48:03;4.88;;;2.80;;
36663;SDS011;53333;51.976;20.144;2022-08-01T07:50:39;3.05;;;2.40;;
36663;SDS011;53333;51.976;20.144;2022-08-01T07:53:13;9.32;;;3.08;;
36663;SDS011;53333;51.976;20.144;2022-08-01T07:55:47;3.45;;;2.60;;
36663;SDS011;53333;51.976;20.144;2022-08-01T07:58:20;2.55;;;2.35;;
36663;SDS011;53333;51.976;20.144;2022-08-01T08:00:55;3.28;;;2.80;;
36663;SDS011;53333;51.976;20.144;2022-08-01T08:03:29;6.63;;;3.58;;
36663;SDS011;53333;51.976;20.144;2022-08-01T08:06:03;2.63;;;2.35;;
36663;SDS011;53333;51.976;20.144;2022-08-01T08:08:37;5.38;;;2.92;;
36663;SDS011;53333;51.976;20.144;2022-08-01T08:11:11;4.20;;;2.60;;
36663;SDS011;53333;51.976;20.144;2022-08-01T08:13:44;3.22;;;2.60;;
36663;SDS011;53333;51.976;20.144;2022-08-01T08:16:19;4.68;;;2.83;;
36663;SDS011;53333;51.976;20.144;2022-08-01T08:18:53;3.47;;;2.40;;
36663;SDS011;53333;51.976;20.144;2022-08-01T08:21:27;3.33;;;2.50;;
36663;SDS011;53333;51.976;20.144;2022-08-01T08:24:02;4.80;;;3.85;;
36663;SDS011;53333;51.976;20.144;2022-08-01T08:26:58;2.80;;;2.42;;
36663;SDS011;53333;51.976;20.144;2022-08-01T08:29:33;5.18;;;2.45;;
36663;SDS011;53333;51.976;20.144;2022-08-01T08:32:08;3.92;;;2.17;;
36663;SDS011;53333;51.976;20.144;2022-08-01T08:34:42;5.45;;;2.53;;
36663;SDS011;53333;51.976;20.144;2022-08-01T08:37:16;2.70;;;2.22;;
36663;SDS011;53333;51.976;20.144;2022-08-01T08:39:51;4.03;;;2.15;;
36663;SDS011;53333;51.976;20.144;2022-08-01T08:42:25;3.30;;;2.50;;
36663;SDS011;53333;51.976;20.144;2022-08-01T08:44:59;4.82;;;1.70;;
36663;SDS011;53333;51.976;20.144;2022-08-01T08:47:34;4.55;;;1.98;;
36663;SDS011;53333;51.976;20.144;2022-08-01T08:50:09;4.45;;;1.95;;
36663;SDS011;53333;51.976;20.144;2022-08-01T08:52:43;5.45;;;1.92;;
36663;SDS011;53333;51.976;20.144;2022-08-01T08:55:20;2.35;;;1.60;;
36663;SDS011;53333;51.976;20.144;2022-08-01T08:57:54;5.50;;;1.88;;
36663;SDS011;53333;51.976;20.144;2022-08-01T09:00:29;4.60;;;1.80;;
36663;SDS011;53333;51.976;20.144;2022-08-01T09:03:04;4.88;;;1.80;;
36663;SDS011;53333;51.976;20.144;2022-08-01T09:05:40;2.42;;;1.45;;
36663;SDS011;53333;51.976;20.144;2022-08-01T09:08:15;4.38;;;1.58;;
36663;SDS011;53333;51.976;20.144;2022-08-01T09:10:48;2.38;;;1.88;;
36663;SDS011;53333;51.976;20.144;2022-08-01T09:13:31;3.40;;;1.77;;
36663;SDS011;53333;51.976;20.144;2022-08-01T09:16:05;2.33;;;1.50;;
36663;SDS011;53333;51.976;20.144;2022-08-01T09:18:40;1.98;;;1.42;;
36663;SDS011;53333;51.976;20.144;2022-08-01T09:21:24;3.33;;;1.83;;
36663;SDS011;53333;51.976;20.144;2022-08-01T09:23:59;3.65;;;1.67;;
36663;SDS011;53333;51.976;20.144;2022-08-01T09:26:35;3.30;;;1.98;;
36663;SDS011;53333;51.976;20.144;2022-08-01T09:29:16;1.52;;;1.40;;
36663;SDS011;53333;51.976;20.144;2022-08-01T09:32:11;4.82;;;1.60;;
36663;SDS011;53333;51.976;20.144;2022-08-01T09:34:48;3.92;;;1.73;;
36663;SDS011;53333;51.976;20.144;2022-08-01T09:37:25;1.77;;;1.33;;
36663;SDS011;53333;51.976;20.144;2022-08-01T09:40:08;2.25;;;1.27;;
36663;SDS011;53333;51.976;20.144;2022-08-01T09:42:43;3.28;;;1.13;;
36663;SDS011;53333;51.976;20.144;2022-08-01T09:45:32;1.45;;;1.35;;
36663;SDS011;53333;51.976;20.144;2022-08-01T09:48:16;1.67;;;1.40;;
36663;SDS011;53333;51.976;20.144;2022-08-01T09:50:54;1.42;;;1.20;;
36663;SDS011;53333;51.976;20.144;2022-08-01T09:53:41;2.20;;;1.45;;
36663;SDS011;53333;51.976;20.144;2022-08-01T09:56:23;3.65;;;1.60;;
36663;SDS011;53333;51.976;20.144;2022-08-01T09:58:59;3.80;;;2.65;;
36663;SDS011;53333;51.976;20.144;2022-08-01T10:01:43;2.03;;;1.70;;
36663;SDS011;53333;51.976;20.144;2022-08-01T10:04:19;2.15;;;1.27;;
36663;SDS011;53333;51.976;20.144;2022-08-01T10:07:03;2.70;;;1.65;;
36663;SDS011;53333;51.976;20.144;2022-08-01T10:09:39;2.65;;;1.42;;
36663;SDS011;53333;51.976;20.144;2022-08-01T10:12:13;2.33;;;1.40;;
36663;SDS011;53333;51.976;20.144;2022-08-01T10:14:48;4.20;;;1.90;;
36663;SDS011;53333;51.976;20.144;2022-08-01T10:17:23;2.08;;;1.52;;
36663;SDS011;53333;51.976;20.144;2022-08-01T10:20:18;4.10;;;1.70;;
36663;SDS011;53333;51.976;20.144;2022-08-01T10:23:03;1.98;;;1.58;;
36663;SDS011;53333;51.976;20.144;2022-08-01T10:25:40;2.35;;;1.75;;
36663;SDS011;53333;51.976;20.144;2022-08-01T10:28:17;5.63;;;2.00;;
36663;SDS011;53333;51.976;20.144;2022-08-01T10:30:55;2.42;;;1.55;;
36663;SDS011;53333;51.976;20.144;2022-08-01T10:33:30;4.85;;;2.15;;
36663;SDS011;53333;51.976;20.144;2022-08-01T10:36:23;3.60;;;1.65;;
36663;SDS011;53333;51.976;20.144;2022-08-01T10:39:00;3.47;;;1.58;;
36663;SDS011;53333;51.976;20.144;2022-08-01T10:41:34;2.22;;;1.63;;
36663;SDS011;53333;51.976;20.144;2022-08-01T10:44:12;9.77;;;2.20;;
36663;SDS011;53333;51.976;20.144;2022-08-01T10:46:46;2.20;;;1.67;;
36663;SDS011;53333;51.976;20.144;2022-08-01T10:49:24;3.00;;;1.90;;
36663;SDS011;53333;51.976;20.144;2022-08-01T10:52:02;3.38;;;1.63;;
36663;SDS011;53333;51.976;20.144;2022-08-01T10:54:39;3.95;;;2.05;;
36663;SDS011;53333;51.976;20.144;2022-08-01T10:57:23;4.18;;;1.73;;
36663;SDS011;53333;51.976;20.144;2022-08-01T10:59:58;3.55;;;2.10;;
36663;SDS011;53333;51.976;20.144;2022-08-01T11:02:36;1.77;;;1.67;;
36663;SDS011;53333;51.976;20.144;2022-08-01T11:05:19;2.67;;;1.67;;
36663;SDS011;53333;51.976;20.144;2022-08-01T11:07:54;3.45;;;1.67;;
36663;SDS011;53333;51.976;20.144;2022-08-01T11:10:30;2.75;;;1.60;;
36663;SDS011;53333;51.976;20.144;2022-08-01T11:13:10;3.35;;;1.75;;
36663;SDS011;53333;51.976;20.144;2022-08-01T11:15:44;9.20;;;2.10;;
36663;SDS011;53333;51.976;20.144;2022-08-01T11:18:30;7.30;;;2.45;;
36663;SDS011;53333;51.976;20.144;2022-08-01T11:21:08;4.35;;;2.20;;
36663;SDS011;53333;51.976;20.144;2022-08-01T11:24:02;2.65;;;1.80;;
36663;SDS011;53333;51.976;20.144;2022-08-01T11:26:37;2.55;;;2.05;;
36663;SDS011;53333;51.976;20.144;2022-08-01T11:29:13;1.60;;;1.50;;
36663;SDS011;53333;51.976;20.144;2022-08-01T11:31:53;2.53;;;1.60;;
36663;SDS011;53333;51.976;20.144;2022-08-01T11:34:59;1.88;;;1.45;;
36663;SDS011;53333;51.976;20.144;2022-08-01T11:37:33;3.78;;;1.65;;
36663;SDS011;53333;51.976;20.144;2022-08-01T11:40:14;3.13;;;2.20;;
36663;SDS011;53333;51.976;20.144;2022-08-01T11:45:51;4.53;;;1.77;;
36663;SDS011;53333;51.976;20.144;2022-08-01T11:48:28;4.00;;;1.48;;
36663;SDS011;53333;51.976;20.144;2022-08-01T11:51:02;2.28;;;1.60;;
36663;SDS011;53333;51.976;20.144;2022-08-01T11:53:35;2.75;;;1.70;;
36663;SDS011;53333;51.976;20.144;2022-08-01T11:56:19;2.33;;;1.80;;
36663;SDS011;53333;51.976;20.144;2022-08-01T11:59:00;3.88;;;1.80;;
36663;SDS011;53333;51.976;20.144;2022-08-01T12:01:34;1.83;;;1.58;;
36663;SDS011;53333;51.976;20.144;2022-08-01T12:04:11;2.10;;;1.50;;
36663;SDS011;53333;51.976;20.144;2022-08-01T12:06:47;9.13;;;5.15;;
36663;SDS011;53333;51.976;20.144;2022-08-01T12:09:21;2.53;;;2.00;;
36663;SDS011;53333;51.976;20.144;2022-08-01T12:11:56;4.53;;;2.00;;
36663;SDS011;53333;51.976;20.144;2022-08-01T12:14:31;4.97;;;1.85;;
36663;SDS011;53333;51.976;20.144;2022-08-01T12:17:05;3.85;;;1.70;;
36663;SDS011;53333;51.976;20.144;2022-08-01T12:19:40;2.80;;;1.92;;
36663;SDS011;53333;51.976;20.144;2022-08-01T12:22:14;2.42;;;1.80;;
36663;SDS011;53333;51.976;20.144;2022-08-01T12:24:47;3.38;;;1.75;;
36663;SDS011;53333;51.976;20.144;2022-08-01T12:27:25;3.05;;;2.08;;
36663;SDS011;53333;51.976;20.144;2022-08-01T12:30:02;3.22;;;1.80;;
36663;SDS011;53333;51.976;20.144;2022-08-01T12:32:39;2.47;;;1.40;;
36663;SDS011;53333;51.976;20.144;2022-08-01T12:35:15;2.10;;;1.90;;
36663;SDS011;53333;51.976;20.144;2022-08-01T12:37:49;2.33;;;1.80;;
36663;SDS011;53333;51.976;20.144;2022-08-01T12:40:25;3.88;;;2.00;;
36663;SDS011;53333;51.976;20.144;2022-08-01T12:43:00;3.70;;;1.80;;
36663;SDS011;53333;51.976;20.144;2022-08-01T12:45:38;3.20;;;1.60;;
36663;SDS011;53333;51.976;20.144;2022-08-01T12:48:27;3.47;;;1.75;;
36663;SDS011;53333;51.976;20.144;2022-08-01T12:51:04;3.65;;;2.30;;
36663;SDS011;53333;51.976;20.144;2022-08-01T12:53:40;2.28;;;1.90;;
36663;SDS011;53333;51.976;20.144;2022-08-01T12:56:14;1.90;;;1.70;;
36663;SDS011;53333;51.976;20.144;2022-08-01T12:58:48;4.20;;;2.03;;
36663;SDS011;53333;51.976;20.144;2022-08-01T13:01:25;2.08;;;1.77;;
36663;SDS011;53333;51.976;20.144;2022-08-01T13:04:00;2.75;;;2.10;;
36663;SDS011;53333;51.976;20.144;2022-08-01T13:06:35;2.25;;;1.85;;
36663;SDS011;53333;51.976;20.144;2022-08-01T13:09:09;6.18;;;2.13;;
36663;SDS011;53333;51.976;20.144;2022-08-01T13:11:45;3.25;;;1.65;;
36663;SDS011;53333;51.976;20.144;2022-08-01T13:14:35;2.05;;;1.83;;
36663;SDS011;53333;51.976;20.144;2022-08-01T13:20:08;3.25;;;1.85;;
36663;SDS011;53333;51.976;20.144;2022-08-01T13:22:42;4.68;;;2.55;;
36663;SDS011;53333;51.976;20.144;2022-08-01T13:25:15;3.95;;;3.10;;
36663;SDS011;53333;51.976;20.144;2022-08-01T13:30:51;2.47;;;2.13;;
36663;SDS011;53333;51.976;20.144;2022-08-01T13:33:28;5.15;;;2.75;;
36663;SDS011;53333;51.976;20.144;2022-08-01T13:36:14;4.57;;;4.00;;
36663;SDS011;53333;51.976;20.144;2022-08-01T13:38:48;3.08;;;2.47;;
36663;SDS011;53333;51.976;20.144;2022-08-01T13:41:39;3.92;;;3.50;;
36663;SDS011;53333;51.976;20.144;2022-08-01T13:44:13;11.95;;;8.07;;
36663;SDS011;53333;51.976;20.144;2022-08-01T13:46:47;3.13;;;2.20;;
36663;SDS011;53333;51.976;20.144;2022-08-01T13:49:23;4.15;;;2.30;;
36663;SDS011;53333;51.976;20.144;2022-08-01T13:52:08;3.47;;;2.00;;
36663;SDS011;53333;51.976;20.144;2022-08-01T13:54:42;2.15;;;1.90;;
36663;SDS011;53333;51.976;20.144;2022-08-01T13:57:15;2.33;;;2.13;;
36663;SDS011;53333;51.976;20.144;2022-08-01T13:59:49;2.85;;;2.15;;
36663;SDS011;53333;51.976;20.144;2022-08-01T14:02:24;4.85;;;1.90;;
36663;SDS011;53333;51.976;20.144;2022-08-01T14:04:59;4.10;;;2.00;;
36663;SDS011;53333;51.976;20.144;2022-08-01T14:07:33;2.33;;;1.95;;
36663;SDS011;53333;51.976;20.144;2022-08-01T14:10:08;3.03;;;1.80;;
36663;SDS011;53333;51.976;20.144;2022-08-01T14:12:51;3.13;;;2.10;;
36663;SDS011;53333;51.976;20.144;2022-08-01T14:15:27;4.18;;;2.20;;
36663;SDS011;53333;51.976;20.144;2022-08-01T14:18:10;3.45;;;2.42;;
36663;SDS011;53333;51.976;20.144;2022-08-01T14:20:45;2.88;;;2.15;;
36663;SDS011;53333;51.976;20.144;2022-08-01T14:23:21;4.03;;;2.33;;
36663;SDS011;53333;51.976;20.144;2022-08-01T14:25:54;3.17;;;2.08;;
36663;SDS011;53333;51.976;20.144;2022-08-01T14:28:36;7.32;;;2.30;;
36663;SDS011;53333;51.976;20.144;2022-08-01T14:31:10;8.13;;;2.45;;
36663;SDS011;53333;51.976;20.144;2022-08-01T14:34:02;2.58;;;2.17;;
36663;SDS011;53333;51.976;20.144;2022-08-01T14:36:37;5.20;;;2.00;;
36663;SDS011;53333;51.976;20.144;2022-08-01T14:39:14;3.35;;;2.10;;
36663;SDS011;53333;51.976;20.144;2022-08-01T14:41:49;5.82;;;2.25;;
36663;SDS011;53333;51.976;20.144;2022-08-01T14:44:22;2.75;;;2.17;;
36663;SDS011;53333;51.976;20.144;2022-08-01T14:47:03;2.70;;;2.20;;
36663;SDS011;53333;51.976;20.144;2022-08-01T14:49:52;3.25;;;2.45;;
36663;SDS011;53333;51.976;20.144;2022-08-01T14:52:27;5.68;;;2.53;;
36663;SDS011;53333;51.976;20.144;2022-08-01T14:55:01;4.88;;;2.30;;
36663;SDS011;53333;51.976;20.144;2022-08-01T14:57:36;3.92;;;2.28;;
36663;SDS011;53333;51.976;20.144;2022-08-01T15:00:11;2.72;;;2.10;;
36663;SDS011;53333;51.976;20.144;2022-08-01T15:02:45;2.40;;;2.10;;
36663;SDS011;53333;51.976;20.144;2022-08-01T15:05:22;2.20;;;2.00;;
36663;SDS011;53333;51.976;20.144;2022-08-01T15:07:57;2.42;;;2.20;;
36663;SDS011;53333;51.976;20.144;2022-08-01T15:10:30;3.75;;;2.42;;
36663;SDS011;53333;51.976;20.144;2022-08-01T15:13:04;4.65;;;2.60;;
36663;SDS011;53333;51.976;20.144;2022-08-01T15:15:38;2.50;;;2.28;;
36663;SDS011;53333;51.976;20.144;2022-08-01T15:18:12;4.25;;;2.05;;
36663;SDS011;53333;51.976;20.144;2022-08-01T15:20:46;3.78;;;2.45;;
36663;SDS011;53333;51.976;20.144;2022-08-01T15:23:21;6.05;;;2.25;;
36663;SDS011;53333;51.976;20.144;2022-08-01T15:25:55;4.15;;;2.53;;
36663;SDS011;53333;51.976;20.144;2022-08-01T15:28:29;3.15;;;2.10;;
36663;SDS011;53333;51.976;20.144;2022-08-01T15:31:02;2.50;;;2.30;;
36663;SDS011;53333;51.976;20.144;2022-08-01T15:33:36;5.03;;;2.42;;
36663;SDS011;53333;51.976;20.144;2022-08-01T15:36:10;2.83;;;2.53;;
36663;SDS011;53333;51.976;20.144;2022-08-01T15:38:47;3.75;;;2.47;;
36663;SDS011;53333;51.976;20.144;2022-08-01T15:41:21;5.45;;;2.55;;
36663;SDS011;53333;51.976;20.144;2022-08-01T15:43:55;5.28;;;2.58;;
36663;SDS011;53333;51.976;20.144;2022-08-01T15:46:28;3.95;;;2.45;;
36663;SDS011;53333;51.976;20.144;2022-08-01T15:49:02;4.28;;;2.47;;
36663;SDS011;53333;51.976;20.144;2022-08-01T15:51:37;4.25;;;2.47;;